createdAt,value
2022-09-07T00:00:08.905Z,36.05
2022-09-07T00:02:38.029Z,33.33
2022-09-07T00:05:08.134Z,44.17
2022-09-07T00:07:38.647Z,40.83
2022-09-07T00:10:08.863Z,39.53
2022-09-07T00:12:37.932Z,46.95
2022-09-07T00:15:09.544Z,37.75
2022-09-07T00:17:39.046Z,34.40
2022-09-07T00:20:09.991Z,34.30
2022-09-07T00:22:40.713Z,45.08
2022-09-07T00:25:10.509Z,41.38
2022-09-07T00:27:39.603Z,41.42
2022-09-07T00:30:09.404Z,48.60
2022-09-07T00:32:38.457Z,40.58
2022-09-07T00:35:08.122Z,44.53
2022-09-07T00:37:37.186Z,35.95
2022-09-07T00:40:09.012Z,45.78
2022-09-07T00:42:38.102Z,35.55
2022-09-07T00:45:15.877Z,44.15
2022-09-07T00:47:56.365Z,42.97
2022-09-07T00:50:30.179Z,47.08
2022-09-07T00:53:04.873Z,40.90
2022-09-07T00:55:36.277Z,51.92
2022-09-07T01:00:35.465Z,48.22
2022-09-07T01:03:05.975Z,53.38
2022-09-07T01:05:40.229Z,38.92
2022-09-07T01:08:09.884Z,43.60
2022-09-07T01:10:40.585Z,45.83
2022-09-07T01:13:09.667Z,46.30
2022-09-07T01:15:47.490Z,42.35
2022-09-07T01:18:26.260Z,51.30
2022-09-07T01:21:24.767Z,42.17
2022-09-07T01:24:36.363Z,42.75
2022-09-07T01:27:35.529Z,47.72
2022-09-07T01:30:07.995Z,34.17
2022-09-07T01:32:51.737Z,39.72
2022-09-07T01:35:28.013Z,35.08
2022-09-07T01:38:07.302Z,34.85
2022-09-07T01:40:45.535Z,30.58
2022-09-07T01:43:23.311Z,37.42
2022-09-07T01:45:56.528Z,40.83
2022-09-07T01:48:27.644Z,33.05
2022-09-07T01:51:01.993Z,49.80
2022-09-07T01:53:35.399Z,37.13
2022-09-07T01:56:08.362Z,30.83
2022-09-07T01:58:44.455Z,43.08
2022-09-07T02:01:26.550Z,49.10
2022-09-07T02:04:01.341Z,55.05
2022-09-07T02:06:37.941Z,44.72
2022-09-07T02:09:12.433Z,34.88
2022-09-07T02:11:44.541Z,39.25
2022-09-07T02:14:19.338Z,34.40
2022-09-07T02:16:53.517Z,34.92
2022-09-07T02:19:25.743Z,25.98
2022-09-07T02:22:00.253Z,27.27
2022-09-07T02:24:34.037Z,33.22
2022-09-07T02:27:08.941Z,30.70
2022-09-07T02:29:39.513Z,26.17
2022-09-07T02:32:08.636Z,34.78
2022-09-07T02:34:37.970Z,22.92
2022-09-07T02:37:09.746Z,22.48
2022-09-07T02:39:38.897Z,35.13
2022-09-07T02:42:08.202Z,31.33
2022-09-07T02:44:41.800Z,27.63
2022-09-07T02:47:21.669Z,30.00
2022-09-07T02:50:07.867Z,30.25
2022-09-07T02:52:48.186Z,25.55
2022-09-07T02:55:27.950Z,21.60
2022-09-07T02:58:08.166Z,31.92
2022-09-07T03:00:47.220Z,15.50
2022-09-07T03:03:23.794Z,29.50
2022-09-07T03:05:56.992Z,19.08
2022-09-07T03:08:30.017Z,25.98
2022-09-07T03:10:59.641Z,27.92
2022-09-07T03:13:30.373Z,24.63
2022-09-07T03:16:00.869Z,30.73
2022-09-07T03:18:30.210Z,27.83
2022-09-07T03:20:59.356Z,34.20
2022-09-07T03:23:28.386Z,17.98
2022-09-07T03:25:57.472Z,24.73
2022-09-07T03:28:26.499Z,24.88
2022-09-07T03:30:55.689Z,19.55
2022-09-07T03:33:26.275Z,29.73
2022-09-07T03:36:01.331Z,20.37
2022-09-07T03:38:31.910Z,21.42
2022-09-07T03:41:02.498Z,24.95
2022-09-07T03:43:32.212Z,23.47
2022-09-07T03:46:02.792Z,30.33
2022-09-07T03:48:34.106Z,25.63
2022-09-07T03:51:05.471Z,24.30
2022-09-07T03:56:06.526Z,29.63
2022-09-07T03:58:36.500Z,28.52
2022-09-07T04:01:07.836Z,22.08
2022-09-07T04:06:07.574Z,22.77
2022-09-07T04:08:38.171Z,22.08
2022-09-07T04:11:09.905Z,22.65
2022-09-07T04:13:39.188Z,23.38
2022-09-07T04:16:12.788Z,23.88
2022-09-07T04:18:43.642Z,25.48
2022-09-07T04:21:12.939Z,22.20
2022-09-07T04:23:43.716Z,19.05
2022-09-07T04:26:17.956Z,17.40
2022-09-07T04:28:47.854Z,23.50
2022-09-07T04:31:19.041Z,25.67
2022-09-07T04:33:51.008Z,14.95
2022-09-07T04:36:21.238Z,22.20
2022-09-07T04:38:56.004Z,24.13
2022-09-07T04:41:25.215Z,22.10
2022-09-07T04:43:55.885Z,21.38
2022-09-07T04:46:27.123Z,19.85
2022-09-07T04:48:58.976Z,21.20
2022-09-07T04:51:30.126Z,17.10
2022-09-07T04:54:01.067Z,25.38
2022-09-07T04:56:30.720Z,19.08
2022-09-07T04:59:00.390Z,21.88
2022-09-07T05:01:29.992Z,23.10
2022-09-07T05:04:02.405Z,29.17
2022-09-07T05:06:31.905Z,25.15
2022-09-07T05:09:01.376Z,22.58
2022-09-07T05:11:30.803Z,21.52
2022-09-07T05:14:00.467Z,22.92
2022-09-07T05:16:30.846Z,25.88
2022-09-07T05:19:03.041Z,25.67
2022-09-07T05:21:33.505Z,17.80
2022-09-07T05:24:03.219Z,25.00
2022-09-07T05:26:34.002Z,29.90
2022-09-07T05:31:55.226Z,18.88
2022-09-07T05:36:57.957Z,23.50
2022-09-07T05:39:27.792Z,25.70
2022-09-07T05:41:56.956Z,28.83
2022-09-07T05:47:11.227Z,20.83
2022-09-07T05:49:41.715Z,24.83
2022-09-07T05:52:10.983Z,24.55
2022-09-07T05:54:40.253Z,21.33
2022-09-07T05:57:11.735Z,26.02
2022-09-07T05:59:40.776Z,21.52
2022-09-07T06:02:14.770Z,25.63
2022-09-07T06:04:45.405Z,20.80
2022-09-07T06:07:22.170Z,23.50
2022-09-07T06:12:43.422Z,17.13
2022-09-07T06:15:16.118Z,16.35
2022-09-07T06:17:45.183Z,18.38
2022-09-07T06:20:15.941Z,18.25
2022-09-07T06:22:44.998Z,23.88
2022-09-07T06:25:14.088Z,20.27
2022-09-07T06:27:43.189Z,22.80
2022-09-07T06:30:12.940Z,24.10
2022-09-07T06:35:12.248Z,20.10
2022-09-07T06:37:42.767Z,15.15
2022-09-07T06:40:13.113Z,20.90
2022-09-07T06:42:42.412Z,19.50
2022-09-07T06:45:12.979Z,23.75
2022-09-07T06:47:42.081Z,17.95
2022-09-07T06:50:12.551Z,16.50
2022-09-07T06:55:32.129Z,17.95
2022-09-07T06:58:01.141Z,16.92
2022-09-07T07:00:30.229Z,18.15
2022-09-07T07:02:59.366Z,21.52
2022-09-07T07:05:28.494Z,21.95
2022-09-07T07:07:59.022Z,12.90
2022-09-07T07:10:28.130Z,22.40
2022-09-07T07:12:58.544Z,23.50
2022-09-07T07:15:29.613Z,21.75
2022-09-07T07:18:13.502Z,25.83
2022-09-07T07:20:48.309Z,14.02
2022-09-07T07:23:18.776Z,21.30
2022-09-07T07:25:47.808Z,21.27
2022-09-07T07:31:10.419Z,27.30
2022-09-07T07:33:41.632Z,29.83
2022-09-07T07:36:13.030Z,26.27
2022-09-07T07:44:21.658Z,29.95
2022-09-07T07:46:51.554Z,31.73
2022-09-07T07:49:21.041Z,31.85
2022-09-07T07:54:40.488Z,39.85
2022-09-07T07:57:09.658Z,27.52
2022-09-07T07:59:38.701Z,41.03
2022-09-07T08:02:15.130Z,37.88
2022-09-07T08:04:44.429Z,46.53
2022-09-07T08:07:13.620Z,44.55
2022-09-07T08:09:45.771Z,49.50
2022-09-07T08:12:17.310Z,45.75
2022-09-07T08:14:48.222Z,38.00
2022-09-07T08:17:18.503Z,44.15
2022-09-07T08:19:47.642Z,45.03
2022-09-07T08:22:16.745Z,37.42
2022-09-07T08:24:47.089Z,42.33
2022-09-07T08:27:19.912Z,34.90
2022-09-07T08:29:48.902Z,40.05
2022-09-07T08:32:18.245Z,35.25
2022-09-07T08:34:47.287Z,34.65
2022-09-07T08:37:16.276Z,29.15
2022-09-07T08:39:46.715Z,36.50
2022-09-07T08:42:34.470Z,27.25
2022-09-07T08:45:07.395Z,29.15
2022-09-07T08:47:43.365Z,24.98
2022-09-07T08:50:19.060Z,24.17
2022-09-07T08:52:51.479Z,24.83
2022-09-07T08:55:27.983Z,20.50
2022-09-07T08:58:05.233Z,21.45
2022-09-07T09:00:36.154Z,17.10
2022-09-07T09:06:06.694Z,22.50
2022-09-07T09:08:51.226Z,24.17
2022-09-07T09:11:29.239Z,25.40
2022-09-07T09:14:06.850Z,21.98
2022-09-07T09:16:42.885Z,32.50
2022-09-07T09:19:30.810Z,27.45
2022-09-07T09:22:10.028Z,24.42
2022-09-07T09:24:44.720Z,30.45
2022-09-07T09:27:15.133Z,28.27
2022-09-07T09:29:44.547Z,35.27
2022-09-07T09:32:37.198Z,44.17
2022-09-07T09:35:17.298Z,30.90
2022-09-07T09:37:46.474Z,33.90
2022-09-07T09:40:22.633Z,32.63
2022-09-07T09:43:03.860Z,32.97
2022-09-07T09:48:33.975Z,28.35
2022-09-07T09:54:00.794Z,20.42
2022-09-07T09:56:40.844Z,24.05
2022-09-07T10:05:30.045Z,27.55
2022-09-07T10:07:59.345Z,25.13
2022-09-07T10:10:30.267Z,33.75
2022-09-07T10:12:59.672Z,28.65
2022-09-07T10:15:40.159Z,27.45
2022-09-07T10:20:47.586Z,27.67
2022-09-07T10:23:25.958Z,23.27
2022-09-07T10:25:54.935Z,25.98
2022-09-07T10:29:06.053Z,34.28
2022-09-07T10:31:20.919Z,26.15
2022-09-07T10:36:55.107Z,29.05
2022-09-07T10:39:28.172Z,32.53
2022-09-07T10:42:05.704Z,28.33
2022-09-07T10:44:47.333Z,36.00
2022-09-07T10:47:29.154Z,31.13
2022-09-07T10:53:18.030Z,31.30
2022-09-07T10:56:01.302Z,35.90
2022-09-07T11:01:42.921Z,30.35
2022-09-07T11:04:33.376Z,30.60
2022-09-07T11:07:14.909Z,30.40
2022-09-07T11:09:58.980Z,23.00
2022-09-07T11:12:32.242Z,34.53
2022-09-07T11:15:16.805Z,37.22
2022-09-07T11:17:52.053Z,28.65
2022-09-07T11:20:29.798Z,28.50
2022-09-07T11:23:07.855Z,26.10
2022-09-07T11:25:42.445Z,30.25
2022-09-07T11:28:17.865Z,29.00
2022-09-07T11:30:54.559Z,23.17
2022-09-07T11:33:28.811Z,29.85
2022-09-07T11:36:05.116Z,27.25
2022-09-07T11:38:37.191Z,25.55
2022-09-07T11:41:23.380Z,28.45
2022-09-07T11:44:04.333Z,31.17
2022-09-07T11:46:38.935Z,29.80
2022-09-07T11:49:14.549Z,35.90
2022-09-07T11:51:53.694Z,38.10
2022-09-07T11:54:37.537Z,23.90
2022-09-07T11:57:31.501Z,28.50
2022-09-07T12:00:08.143Z,29.75
2022-09-07T12:03:22.640Z,25.73
2022-09-07T12:06:20.681Z,33.47
2022-09-07T12:09:02.915Z,39.22
2022-09-07T12:11:59.708Z,34.03
2022-09-07T12:14:44.775Z,25.77
2022-09-07T12:17:35.507Z,22.13
2022-09-07T12:20:16.671Z,30.90
2022-09-07T12:23:04.240Z,24.27
2022-09-07T12:25:36.494Z,25.48
2022-09-07T12:28:06.771Z,17.40
2022-09-07T12:30:53.633Z,26.08
2022-09-07T12:33:36.693Z,23.08
2022-09-07T12:36:39.022Z,24.05
2022-09-07T12:39:21.790Z,23.75
2022-09-07T12:44:43.927Z,28.15
2022-09-07T12:47:30.663Z,31.83
2022-09-07T12:50:22.702Z,39.20
2022-09-07T12:53:18.866Z,31.90
2022-09-07T12:56:15.900Z,33.60
2022-09-07T12:58:54.333Z,26.42
2022-09-07T13:01:44.237Z,30.15
2022-09-07T13:04:52.799Z,31.02
2022-09-07T13:08:06.961Z,27.13
2022-09-07T13:10:39.263Z,25.40
2022-09-07T13:13:18.661Z,33.50
2022-09-07T13:15:51.190Z,29.98
2022-09-07T13:18:42.037Z,24.65
2022-09-07T13:21:43.227Z,25.53
2022-09-07T13:24:50.612Z,20.42
2022-09-07T13:27:34.115Z,25.33
2022-09-07T13:30:07.163Z,29.58
2022-09-07T13:35:28.148Z,34.55
2022-09-07T13:38:00.193Z,33.23
2022-09-07T13:40:32.008Z,30.55
2022-09-07T13:43:02.027Z,30.17
2022-09-07T13:45:36.203Z,27.48
2022-09-07T13:48:19.031Z,24.10
2022-09-07T13:50:58.975Z,32.00
2022-09-07T13:53:55.144Z,25.13
2022-09-07T13:56:38.266Z,35.45
2022-09-07T13:59:19.593Z,32.85
2022-09-07T14:01:50.593Z,29.13
2022-09-07T14:04:28.302Z,37.67
2022-09-07T14:07:04.594Z,33.78
2022-09-07T14:09:35.116Z,27.75
2022-09-07T14:12:05.632Z,27.70
2022-09-07T14:14:34.819Z,40.30
2022-09-07T14:17:07.177Z,35.25
2022-09-07T14:19:42.010Z,32.88
2022-09-07T14:22:15.520Z,31.83
2022-09-07T14:24:49.457Z,35.45
2022-09-07T14:27:23.657Z,29.23
2022-09-07T14:29:53.263Z,36.65
2022-09-07T14:32:27.149Z,40.75
2022-09-07T14:34:58.130Z,33.83
2022-09-07T14:37:29.450Z,36.10
2022-09-07T14:42:27.984Z,44.70
2022-09-07T14:45:21.819Z,37.35
2022-09-07T14:47:53.281Z,33.17
2022-09-07T14:50:27.578Z,36.90
2022-09-07T14:55:48.660Z,37.60
2022-09-07T14:58:25.897Z,27.35
2022-09-07T15:03:59.740Z,31.83
2022-09-07T15:09:30.896Z,24.38
2022-09-07T15:12:24.896Z,25.77
2022-09-07T15:15:11.803Z,10.00
2022-09-07T15:17:44.448Z,22.08
2022-09-07T15:20:36.741Z,17.77
2022-09-07T15:23:10.752Z,18.73
2022-09-07T15:25:41.038Z,16.02
2022-09-07T15:34:02.930Z,19.60
2022-09-07T15:36:32.424Z,16.75
2022-09-07T15:39:03.585Z,23.58
2022-09-07T15:44:01.726Z,24.02
2022-09-07T15:46:31.095Z,22.45
2022-09-07T15:49:01.664Z,21.02
2022-09-07T15:54:21.618Z,24.05
2022-09-07T15:59:39.625Z,29.52
2022-09-07T16:04:58.743Z,35.35
2022-09-07T16:08:24.742Z,29.50
2022-09-07T16:10:18.891Z,33.45
2022-09-07T16:13:10.734Z,34.17
2022-09-07T16:15:45.072Z,32.25
2022-09-07T16:18:17.303Z,34.72
2022-09-07T16:20:47.275Z,31.00
2022-09-07T16:23:17.615Z,37.85
2022-09-07T16:25:58.603Z,36.85
2022-09-07T16:28:28.697Z,30.58
2022-09-07T16:30:58.284Z,27.98
2022-09-07T16:33:36.008Z,32.03
2022-09-07T16:36:09.208Z,33.92
2022-09-07T16:38:47.039Z,37.80
2022-09-07T16:41:20.304Z,34.55
2022-09-07T16:43:49.994Z,38.63
2022-09-07T16:46:21.425Z,30.17
2022-09-07T16:51:22.843Z,33.83
2022-09-07T16:53:52.960Z,33.65
2022-09-07T16:56:26.851Z,33.95
2022-09-07T16:58:57.726Z,32.38
2022-09-07T17:01:29.223Z,31.83
2022-09-07T17:03:58.695Z,39.70
2022-09-07T17:06:30.244Z,30.33
2022-09-07T17:09:00.360Z,32.78
2022-09-07T17:11:32.966Z,27.83
2022-09-07T17:14:02.773Z,27.10
2022-09-07T17:16:33.648Z,29.80
2022-09-07T17:21:53.643Z,29.85
2022-09-07T17:24:22.954Z,32.78
2022-09-07T17:26:53.339Z,30.67
2022-09-07T17:29:22.429Z,29.58
2022-09-07T17:34:40.409Z,33.53
2022-09-07T17:37:10.236Z,29.38
2022-09-07T17:39:39.764Z,32.00
2022-09-07T17:42:10.188Z,34.13
2022-09-07T17:44:39.246Z,32.00
2022-09-07T17:47:08.389Z,38.25
2022-09-07T17:49:37.383Z,33.85
2022-09-07T17:52:06.787Z,31.77
2022-09-07T17:54:35.726Z,35.50
2022-09-07T17:57:05.145Z,39.85
2022-09-07T18:02:24.441Z,30.42
2022-09-07T18:04:53.922Z,32.83
2022-09-07T18:07:23.144Z,38.40
2022-09-07T18:09:52.620Z,30.50
2022-09-07T18:12:25.461Z,33.47
2022-09-07T18:14:55.820Z,28.90
2022-09-07T18:17:25.036Z,31.33
2022-09-07T18:19:54.674Z,32.10
2022-09-07T18:22:23.841Z,33.50
2022-09-07T18:24:52.936Z,35.42
2022-09-07T18:27:22.236Z,38.30
2022-09-07T18:29:51.344Z,28.75
2022-09-07T18:32:21.870Z,35.17
2022-09-07T18:34:51.064Z,30.95
2022-09-07T18:37:20.129Z,33.13
2022-09-07T18:39:49.201Z,27.10
2022-09-07T18:42:18.277Z,29.45
2022-09-07T18:47:39.885Z,30.15
2022-09-07T18:50:09.795Z,28.52
2022-09-07T18:52:59.169Z,28.77
2022-09-07T18:55:28.114Z,27.92
2022-09-07T18:57:57.274Z,29.70
2022-09-07T19:00:26.360Z,37.15
2022-09-07T19:02:56.939Z,46.40
2022-09-07T19:08:20.114Z,34.38
2022-09-07T19:10:49.136Z,38.95
2022-09-07T19:13:18.247Z,37.60
2022-09-07T19:15:47.558Z,34.50
2022-09-07T19:18:18.021Z,32.47
2022-09-07T19:20:47.064Z,29.20
2022-09-07T19:23:16.114Z,36.75
2022-09-07T19:25:45.141Z,32.17
2022-09-07T19:28:14.470Z,31.20
2022-09-07T19:30:46.238Z,27.92
2022-09-07T19:33:15.505Z,40.28
2022-09-07T19:35:46.091Z,37.63
2022-09-07T19:38:15.224Z,35.37
2022-09-07T19:40:44.400Z,27.52
2022-09-07T19:43:13.476Z,26.70
2022-09-07T19:45:42.470Z,26.67
2022-09-07T19:48:11.614Z,35.50
2022-09-07T19:50:40.931Z,33.88
2022-09-07T19:53:11.546Z,30.25
2022-09-07T19:55:40.635Z,27.60
2022-09-07T19:58:09.907Z,32.92
2022-09-07T20:00:39.267Z,29.10
2022-09-07T20:03:09.911Z,30.75
2022-09-07T20:05:40.205Z,28.02
2022-09-07T20:08:10.786Z,31.00
2022-09-07T20:10:39.851Z,28.05
2022-09-07T20:13:09.014Z,29.88
2022-09-07T20:15:41.381Z,28.38
2022-09-07T20:18:11.300Z,31.95
2022-09-07T20:20:40.515Z,39.58
2022-09-07T20:23:11.610Z,28.42
2022-09-07T20:25:40.659Z,28.00
2022-09-07T20:28:10.613Z,30.25
2022-09-07T20:30:44.212Z,31.77
2022-09-07T20:33:13.258Z,34.55
2022-09-07T20:35:43.718Z,27.92
2022-09-07T20:38:15.057Z,16.33
2022-09-07T20:43:20.668Z,12.43
2022-09-07T20:45:49.870Z,14.18
2022-09-07T20:48:18.895Z,15.25
2022-09-07T20:50:56.816Z,17.92
2022-09-07T20:53:27.664Z,24.05
2022-09-07T20:56:00.306Z,22.02
2022-09-07T20:58:29.663Z,24.95
2022-09-07T21:00:58.861Z,21.70
2022-09-07T21:03:28.043Z,23.65
2022-09-07T21:05:57.255Z,23.92
2022-09-07T21:08:27.693Z,21.45
2022-09-07T21:10:56.768Z,16.77
2022-09-07T21:13:25.795Z,31.70
2022-09-07T21:15:54.872Z,23.52
2022-09-07T21:18:24.006Z,20.90
2022-09-07T21:21:18.312Z,27.92
2022-09-07T21:23:47.285Z,26.67
2022-09-07T21:26:20.886Z,27.57
2022-09-07T21:28:55.298Z,28.10
2022-09-07T21:31:24.947Z,28.38
2022-09-07T21:33:55.802Z,22.65
2022-09-07T21:36:25.664Z,30.70
2022-09-07T21:38:57.076Z,30.55
2022-09-07T21:41:26.949Z,27.83
2022-09-07T21:43:57.022Z,26.85
2022-09-07T21:46:26.724Z,26.70
2022-09-07T21:48:57.274Z,23.52
2022-09-07T21:51:27.105Z,26.17
2022-09-07T21:53:59.470Z,28.98
2022-09-07T21:56:29.659Z,24.17
2022-09-07T21:59:00.057Z,22.98
2022-09-07T22:01:30.660Z,25.35
2022-09-07T22:04:01.166Z,25.60
2022-09-07T22:06:32.392Z,25.77
2022-09-07T22:11:32.131Z,34.08
2022-09-07T22:14:03.120Z,23.20
2022-09-07T22:16:33.017Z,26.02
2022-09-07T22:19:02.264Z,29.15
2022-09-07T22:21:31.760Z,23.27
2022-09-07T22:24:03.578Z,26.58
2022-09-07T22:26:35.164Z,24.67
2022-09-07T22:29:04.916Z,27.70
2022-09-07T22:31:35.483Z,30.17
2022-09-07T22:34:08.011Z,28.67
2022-09-07T22:36:38.727Z,31.58
2022-09-07T22:39:12.645Z,29.17
2022-09-07T22:41:43.424Z,24.52
2022-09-07T22:44:14.223Z,26.30
2022-09-07T22:46:44.658Z,25.05
2022-09-07T22:49:15.966Z,34.07
2022-09-07T22:51:45.504Z,30.98
2022-09-07T22:54:16.085Z,30.65
2022-09-07T22:56:45.175Z,28.92
2022-09-07T22:59:14.698Z,27.73
2022-09-07T23:01:44.076Z,30.95
2022-09-07T23:04:13.657Z,25.27
2022-09-07T23:06:44.512Z,31.65
2022-09-07T23:09:16.575Z,18.38
2022-09-07T23:11:46.673Z,31.60
2022-09-07T23:14:18.179Z,24.95
2022-09-07T23:16:47.257Z,30.98
2022-09-07T23:19:17.686Z,32.13
2022-09-07T23:21:46.767Z,24.23
2022-09-07T23:24:19.192Z,25.23
2022-09-07T23:26:48.524Z,28.35
2022-09-07T23:29:18.130Z,26.00
2022-09-07T23:31:48.167Z,17.52
2022-09-07T23:34:17.379Z,25.48
2022-09-07T23:36:46.421Z,23.30
2022-09-07T23:39:16.805Z,24.60
2022-09-07T23:41:45.784Z,17.65
2022-09-07T23:44:14.802Z,25.55
2022-09-07T23:46:43.894Z,23.52
2022-09-07T23:49:12.938Z,29.27
2022-09-07T23:51:41.936Z,26.20
2022-09-07T23:54:11.105Z,29.83
2022-09-07T23:56:41.545Z,22.02
2022-09-07T23:59:12.543Z,29.63
